Avery, Texas
Current Conditions -  °F | °C
As of 2:35 PM on Friday 28 Nov 2014 (Local Time) from K4O4 Reporting Station
Clear Clear  
Wind Chill: 18°   Ceiling: Unl
Heat Index: 18°   Visibility: 10mi
Dew Point:   Wind: 13mph
Humidity: 42%   Direction: 190°S
Pressure: 30.09"   Gusts: 20mph
Location:  33.55°N, 94.78°W
Report Text: K4O4 282035Z AUTO 19011G17KT 10SM CLR 18/05 A3009 RMK AO2
Loading
Personal Weather Stations






























Interactive Weather Map New forecast layout! Learn more

10-Day Weather Forecast

Advertisements
Track Severe Weather on mobile